Time;durP1;ratioP1;P1;durP2;ratioP2;P2;SDS_P1;SDS_P2;PMS_P1;PMS_P2;Temp;Humidity;BMP_temperature;BMP_pressure;BME280_temperature;BME280_humidity;BME280_pressure;Samples;Min_cycle;Max_cycle;Signal;HPM_P1;HPM_P2
2023/08/26 00:01:33;;;;;;;11.23;5.93;;;;;;;;;;5018457;28;21043;-64
2023/08/26 00:03:59;;;;;;;11.60;5.80;;;;;;;;;;5005964;28;20076;-65
2023/08/26 00:06:25;;;;;;;10.35;6.03;;;;;;;;;;5018798;28;20439;-65
2023/08/26 00:08:52;;;;;;;10.40;6.18;;;;;;;;;;5024616;28;20411;-65
2023/08/26 00:11:19;;;;;;;13.00;5.82;;;;;;;;;;5018647;28;20037;-66
2023/08/26 00:13:45;;;;;;;11.55;6.05;;;;;;;;;;5002509;28;20021;-65
2023/08/26 00:16:12;;;;;;;15.48;5.70;;;;;;;;;;5023115;28;20424;-67
2023/08/26 00:18:38;;;;;;;11.75;6.40;;;;;;;;;;5004109;28;20091;-67
2023/08/26 00:21:05;;;;;;;12.60;5.75;;;;;;;;;;5021712;28;20803;-66
2023/08/26 00:23:31;;;;;;;12.40;5.80;;;;;;;;;;5020172;28;20021;-66
2023/08/26 00:25:57;;;;;;;12.98;5.85;;;;;;;;;;5024792;28;20114;-66
2023/08/26 00:28:23;;;;;;;12.75;5.95;;;;;;;;;;5017901;28;20036;-65
2023/08/26 00:31:00;;;;;;;14.18;6.00;;;;;;;;;;5022179;28;20585;-65
2023/08/26 00:33:29;;;;;;;10.95;5.70;;;;;;;;;;5014171;28;20295;-67
2023/08/26 00:35:55;;;;;;;10.80;5.82;;;;;;;;;;5021321;28;20029;-67
2023/08/26 00:38:21;;;;;;;10.55;5.50;;;;;;;;;;5020823;28;20098;-65
2023/08/26 00:40:48;;;;;;;12.15;5.57;;;;;;;;;;5022965;28;20124;-66
2023/08/26 00:43:14;;;;;;;10.18;5.35;;;;;;;;;;5017683;28;20029;-65
2023/08/26 00:45:41;;;;;;;13.30;5.95;;;;;;;;;;5021729;28;20029;-67
2023/08/26 00:48:08;;;;;;;14.27;5.68;;;;;;;;;;5020429;28;20028;-64
2023/08/26 00:50:35;;;;;;;12.27;6.07;;;;;;;;;;5021709;28;20358;-65
2023/08/26 00:53:02;;;;;;;10.23;5.63;;;;;;;;;;5023495;28;20495;-65
2023/08/26 00:55:29;;;;;;;11.15;5.95;;;;;;;;;;4996457;28;20029;-65
2023/08/26 00:57:55;;;;;;;11.38;5.47;;;;;;;;;;5019723;28;20021;-66
2023/08/26 01:00:22;;;;;;;10.65;5.65;;;;;;;;;;5020360;28;20033;-65
2023/08/26 01:02:48;;;;;;;11.45;6.05;;;;;;;;;;5025038;28;20117;-65
2023/08/26 01:05:14;;;;;;;9.73;5.57;;;;;;;;;;5014811;28;20128;-66
2023/08/26 01:07:41;;;;;;;11.88;6.07;;;;;;;;;;5021231;28;20041;-65
2023/08/26 01:10:07;;;;;;;12.18;6.22;;;;;;;;;;5004185;28;20037;-65
2023/08/26 01:12:51;;;;;;;11.65;6.45;;;;;;;;;;5016503;28;21521;-66
2023/08/26 01:15:18;;;;;;;10.23;5.25;;;;;;;;;;5019149;28;20501;-65
2023/08/26 01:17:45;;;;;;;9.77;5.18;;;;;;;;;;5001573;28;20123;-65
2023/08/26 01:20:11;;;;;;;9.98;5.00;;;;;;;;;;5022227;28;20071;-65
2023/08/26 01:22:40;;;;;;;9.35;4.85;;;;;;;;;;5003911;28;20497;-65
2023/08/26 01:25:07;;;;;;;12.27;5.20;;;;;;;;;;5021518;28;20386;-65
2023/08/26 01:27:33;;;;;;;10.32;5.47;;;;;;;;;;5017841;28;20245;-66
2023/08/26 01:30:00;;;;;;;14.00;6.10;;;;;;;;;;5017172;28;20126;-65
2023/08/26 01:32:30;;;;;;;11.35;5.53;;;;;;;;;;5015709;28;20080;-65
2023/08/26 01:35:00;;;;;;;17.58;5.80;;;;;;;;;;5020612;28;20035;-65
2023/08/26 01:37:27;;;;;;;13.15;6.25;;;;;;;;;;5018061;28;20037;-65
2023/08/26 01:39:54;;;;;;;11.57;5.63;;;;;;;;;;5020649;28;20051;-65
2023/08/26 01:42:23;;;;;;;10.27;5.93;;;;;;;;;;5017092;28;20056;-65
2023/08/26 01:44:50;;;;;;;13.75;6.22;;;;;;;;;;5019567;28;20037;-65
2023/08/26 01:47:16;;;;;;;10.63;5.90;;;;;;;;;;5016562;28;20028;-65
2023/08/26 01:49:43;;;;;;;13.10;6.90;;;;;;;;;;5022973;28;20119;-65
2023/08/26 01:52:10;;;;;;;10.73;6.25;;;;;;;;;;5020550;28;20786;-65
2023/08/26 01:54:36;;;;;;;11.98;6.57;;;;;;;;;;5018042;28;20529;-65
2023/08/26 01:57:02;;;;;;;10.98;5.90;;;;;;;;;;5004036;28;20423;-65
2023/08/26 01:59:29;;;;;;;12.13;6.00;;;;;;;;;;5017182;28;20495;-65
2023/08/26 02:01:55;;;;;;;13.70;6.43;;;;;;;;;;5004573;28;20020;-65
2023/08/26 02:04:22;;;;;;;14.07;6.30;;;;;;;;;;5016494;28;20049;-65
2023/08/26 02:06:48;;;;;;;12.18;6.20;;;;;;;;;;5017497;28;20047;-65
2023/08/26 02:09:15;;;;;;;14.15;6.10;;;;;;;;;;5019022;28;20067;-66
2023/08/26 02:11:41;;;;;;;13.80;6.43;;;;;;;;;;5017768;28;20032;-64
2023/08/26 02:14:10;;;;;;;12.18;6.80;;;;;;;;;;5000416;28;20574;-64
2023/08/26 02:16:36;;;;;;;13.68;6.80;;;;;;;;;;5015748;28;20066;-65
2023/08/26 02:19:02;;;;;;;12.60;6.05;;;;;;;;;;5013948;28;20034;-65
2023/08/26 02:21:31;;;;;;;12.52;6.03;;;;;;;;;;5004847;28;20033;-65
2023/08/26 02:23:57;;;;;;;9.93;5.90;;;;;;;;;;5019789;28;20664;-65
2023/08/26 02:26:23;;;;;;;10.82;5.97;;;;;;;;;;5002117;28;20282;-65
2023/08/26 02:28:49;;;;;;;12.70;6.20;;;;;;;;;;5017351;28;20089;-65
2023/08/26 02:31:15;;;;;;;10.15;5.75;;;;;;;;;;5021049;28;20029;-65
2023/08/26 02:33:41;;;;;;;11.77;5.50;;;;;;;;;;5022304;28;20132;-65
2023/08/26 02:36:08;;;;;;;11.02;5.95;;;;;;;;;;5021683;28;20439;-65
2023/08/26 02:38:34;;;;;;;14.70;5.70;;;;;;;;;;5002643;28;20193;-66
2023/08/26 02:41:00;;;;;;;12.10;5.65;;;;;;;;;;5000126;28;20033;-66
2023/08/26 02:43:26;;;;;;;14.93;5.82;;;;;;;;;;5020153;28;20089;-65
2023/08/26 02:45:56;;;;;;;10.65;5.13;;;;;;;;;;5019999;28;20028;-65
2023/08/26 02:48:23;;;;;;;11.27;4.70;;;;;;;;;;5014180;28;20508;-65
2023/08/26 02:50:59;;;;;;;9.45;4.47;;;;;;;;;;5026868;28;20035;-65
2023/08/26 02:53:25;;;;;;;9.07;4.28;;;;;;;;;;5000897;28;20119;-66
2023/08/26 02:55:52;;;;;;;9.95;5.18;;;;;;;;;;4997808;28;20144;-65
2023/08/26 02:58:18;;;;;;;10.52;5.10;;;;;;;;;;5003763;28;20574;-64
2023/08/26 03:00:45;;;;;;;10.48;5.00;;;;;;;;;;5026217;28;20053;-65
2023/08/26 03:03:11;;;;;;;12.20;5.03;;;;;;;;;;5023519;28;20042;-65
2023/08/26 03:05:37;;;;;;;12.85;5.32;;;;;;;;;;5020476;28;20479;-65
2023/08/26 03:08:04;;;;;;;10.70;5.70;;;;;;;;;;5023431;28;20040;-65
2023/08/26 03:10:30;;;;;;;10.35;5.20;;;;;;;;;;5018216;28;20037;-65
2023/08/26 03:12:56;;;;;;;13.75;5.70;;;;;;;;;;5006650;28;20029;-65
2023/08/26 03:15:22;;;;;;;10.50;5.25;;;;;;;;;;5016863;28;20218;-66
2023/08/26 03:17:49;;;;;;;10.25;5.43;;;;;;;;;;5020281;28;20117;-64
2023/08/26 03:20:15;;;;;;;10.85;5.35;;;;;;;;;;5019664;28;20350;-64
2023/08/26 03:22:41;;;;;;;11.43;5.35;;;;;;;;;;5006425;28;20519;-64
2023/08/26 03:25:07;;;;;;;13.18;5.82;;;;;;;;;;5022519;28;20551;-65
2023/08/26 03:27:33;;;;;;;12.65;5.63;;;;;;;;;;5003508;28;20635;-64
2023/08/26 03:30:00;;;;;;;10.65;5.32;;;;;;;;;;5022709;28;20076;-64
2023/08/26 03:32:26;;;;;;;10.40;5.30;;;;;;;;;;5001884;28;20602;-64
2023/08/26 03:34:52;;;;;;;12.75;5.40;;;;;;;;;;5003068;28;20265;-65
2023/08/26 03:37:18;;;;;;;13.13;5.40;;;;;;;;;;5020337;28;20127;-65
2023/08/26 03:39:44;;;;;;;11.38;5.95;;;;;;;;;;5000905;28;20033;-64
2023/08/26 03:42:10;;;;;;;12.45;5.60;;;;;;;;;;5007506;28;20089;-64
2023/08/26 03:44:36;;;;;;;10.07;5.72;;;;;;;;;;5018365;28;20037;-64
2023/08/26 03:47:03;;;;;;;11.35;5.78;;;;;;;;;;5027616;28;20562;-64
2023/08/26 03:49:30;;;;;;;12.07;5.50;;;;;;;;;;5022094;28;20562;-64
2023/08/26 03:51:57;;;;;;;11.60;5.75;;;;;;;;;;5024767;28;20593;-64
2023/08/26 03:54:23;;;;;;;12.07;5.75;;;;;;;;;;5021461;28;20142;-65
2023/08/26 03:56:49;;;;;;;12.27;5.90;;;;;;;;;;5022243;28;20025;-66
2023/08/26 03:59:15;;;;;;;10.80;6.15;;;;;;;;;;4998850;28;20035;-66
2023/08/26 04:01:41;;;;;;;11.38;6.50;;;;;;;;;;5025032;28;20021;-66
2023/08/26 04:04:07;;;;;;;12.00;5.72;;;;;;;;;;5023491;28;20538;-65
2023/08/26 04:06:34;;;;;;;11.07;5.57;;;;;;;;;;5019473;28;20695;-65
2023/08/26 04:09:02;;;;;;;10.20;5.72;;;;;;;;;;5002933;28;20048;-65
2023/08/26 04:11:28;;;;;;;10.45;5.50;;;;;;;;;;5019176;28;20029;-65
2023/08/26 04:13:54;;;;;;;10.85;5.18;;;;;;;;;;5022561;28;20040;-65
2023/08/26 04:16:21;;;;;;;10.70;4.80;;;;;;;;;;5018125;28;20247;-65
2023/08/26 04:18:51;;;;;;;9.38;4.88;;;;;;;;;;5021516;28;20152;-65
2023/08/26 04:21:18;;;;;;;9.02;4.53;;;;;;;;;;5020542;28;20111;-65
2023/08/26 04:23:45;;;;;;;10.13;5.30;;;;;;;;;;5006644;28;20029;-65
2023/08/26 04:26:11;;;;;;;12.48;6.15;;;;;;;;;;5022649;28;20021;-65
2023/08/26 04:28:37;;;;;;;12.35;5.90;;;;;;;;;;5022197;28;20032;-65
2023/08/26 04:31:06;;;;;;;12.55;5.80;;;;;;;;;;5022346;28;20033;-65
2023/08/26 04:33:32;;;;;;;13.50;6.05;;;;;;;;;;5021897;28;20035;-65
2023/08/26 04:35:58;;;;;;;11.75;5.78;;;;;;;;;;5024430;28;20119;-65
2023/08/26 04:38:24;;;;;;;12.75;5.75;;;;;;;;;;5015220;28;20058;-65
2023/08/26 04:40:50;;;;;;;9.93;6.07;;;;;;;;;;5023675;28;20032;-65
2023/08/26 04:43:16;;;;;;;15.07;6.30;;;;;;;;;;5020515;28;20032;-65
2023/08/26 04:45:43;;;;;;;17.15;6.85;;;;;;;;;;5020309;28;20393;-65
2023/08/26 04:48:10;;;;;;;20.27;6.60;;;;;;;;;;5022379;28;20059;-65
2023/08/26 04:50:36;;;;;;;17.23;6.25;;;;;;;;;;5002089;28;20544;-65
2023/08/26 04:53:03;;;;;;;14.35;6.60;;;;;;;;;;5023531;28;20059;-65
2023/08/26 04:55:29;;;;;;;16.27;6.07;;;;;;;;;;5019248;28;20035;-65
2023/08/26 04:57:56;;;;;;;12.40;6.13;;;;;;;;;;5022143;28;20052;-65
2023/08/26 05:00:22;;;;;;;16.35;6.10;;;;;;;;;;5020318;28;20290;-66
2023/08/26 05:02:48;;;;;;;11.55;6.03;;;;;;;;;;5023767;28;20033;-65
2023/08/26 05:05:14;;;;;;;12.02;5.75;;;;;;;;;;5020569;28;20133;-66
2023/08/26 05:07:40;;;;;;;11.23;5.75;;;;;;;;;;5021427;28;20163;-64
2023/08/26 05:10:07;;;;;;;10.93;5.97;;;;;;;;;;5002141;28;20037;-64
2023/08/26 05:12:33;;;;;;;11.68;5.68;;;;;;;;;;5022612;28;20777;-64
2023/08/26 05:14:59;;;;;;;11.55;5.25;;;;;;;;;;5005722;28;20083;-64
2023/08/26 05:17:25;;;;;;;10.18;5.20;;;;;;;;;;5020323;28;20021;-66
2023/08/26 05:19:51;;;;;;;15.45;5.63;;;;;;;;;;5021521;28;20036;-66
2023/08/26 05:22:18;;;;;;;12.52;4.97;;;;;;;;;;5015212;28;20029;-66
2023/08/26 05:24:44;;;;;;;12.05;5.30;;;;;;;;;;5019624;28;20037;-65
2023/08/26 05:27:10;;;;;;;13.02;5.22;;;;;;;;;;5022005;28;20021;-66
2023/08/26 05:29:36;;;;;;;10.15;5.43;;;;;;;;;;5020003;28;20038;-65
2023/08/26 05:32:03;;;;;;;10.13;5.15;;;;;;;;;;5007353;28;20423;-66
2023/08/26 05:34:29;;;;;;;10.70;5.22;;;;;;;;;;5018515;28;20120;-65
2023/08/26 05:36:55;;;;;;;10.52;5.22;;;;;;;;;;5020188;28;20491;-64
2023/08/26 05:39:21;;;;;;;9.77;4.70;;;;;;;;;;5013969;28;20501;-65
2023/08/26 05:41:47;;;;;;;10.38;4.78;;;;;;;;;;5021219;28;20037;-66
2023/08/26 05:44:13;;;;;;;10.25;4.75;;;;;;;;;;5020305;28;20095;-66
2023/08/26 05:46:39;;;;;;;10.45;4.93;;;;;;;;;;5022780;28;20122;-66
2023/08/26 05:49:06;;;;;;;8.45;4.38;;;;;;;;;;5022911;28;20376;-64
2023/08/26 05:51:32;;;;;;;12.77;5.15;;;;;;;;;;5002251;28;20040;-64
2023/08/26 05:53:58;;;;;;;10.10;5.18;;;;;;;;;;5022814;28;20024;-64
2023/08/26 05:56:24;;;;;;;11.52;5.28;;;;;;;;;;5018481;28;20298;-64
2023/08/26 05:58:50;;;;;;;11.95;4.72;;;;;;;;;;5020637;28;20522;-64
2023/08/26 06:01:16;;;;;;;9.95;5.10;;;;;;;;;;5000621;28;20111;-64
2023/08/26 06:03:42;;;;;;;14.25;5.10;;;;;;;;;;5001943;28;20483;-67
2023/08/26 06:06:09;;;;;;;13.48;5.35;;;;;;;;;;5019329;28;20060;-64
2023/08/26 06:08:35;;;;;;;10.88;4.63;;;;;;;;;;5018706;28;20394;-64
2023/08/26 06:11:01;;;;;;;12.50;5.00;;;;;;;;;;5020983;28;20059;-64
2023/08/26 06:13:27;;;;;;;14.52;4.82;;;;;;;;;;5020207;28;20021;-64
2023/08/26 06:15:54;;;;;;;11.88;4.78;;;;;;;;;;5023678;28;20044;-64
2023/08/26 06:18:21;;;;;;;10.20;4.13;;;;;;;;;;5018777;28;20136;-64
2023/08/26 06:20:47;;;;;;;9.60;4.40;;;;;;;;;;5004085;28;20120;-65
2023/08/26 06:23:13;;;;;;;10.23;4.53;;;;;;;;;;5020606;28;20063;-65
2023/08/26 06:25:50;;;;;;;11.15;4.95;;;;;;;;;;5021143;28;20094;-64
2023/08/26 06:28:16;;;;;;;8.90;4.55;;;;;;;;;;5021908;28;20251;-65
2023/08/26 06:30:42;;;;;;;10.55;4.22;;;;;;;;;;5020507;28;20029;-64
2023/08/26 06:33:08;;;;;;;11.95;5.20;;;;;;;;;;5020342;28;20046;-65
2023/08/26 06:35:34;;;;;;;12.80;4.20;;;;;;;;;;5018018;28;20029;-66
2023/08/26 06:38:00;;;;;;;11.65;4.65;;;;;;;;;;5017519;28;20327;-65
2023/08/26 06:40:26;;;;;;;11.55;4.82;;;;;;;;;;5016110;28;20041;-65
2023/08/26 06:42:52;;;;;;;14.15;5.05;;;;;;;;;;5020856;28;20029;-65
2023/08/26 06:45:19;;;;;;;11.18;4.57;;;;;;;;;;5017481;28;20127;-65
2023/08/26 06:47:45;;;;;;;14.73;4.72;;;;;;;;;;5015971;28;20130;-65
2023/08/26 06:50:11;;;;;;;10.30;4.45;;;;;;;;;;4999950;28;20446;-65
2023/08/26 06:52:37;;;;;;;11.00;4.85;;;;;;;;;;5014406;28;20437;-65
2023/08/26 06:55:04;;;;;;;11.25;4.50;;;;;;;;;;5004533;28;20035;-65
2023/08/26 06:57:30;;;;;;;10.70;4.40;;;;;;;;;;5018964;28;20017;-65
2023/08/26 06:59:56;;;;;;;14.63;4.57;;;;;;;;;;5020552;28;20087;-65
2023/08/26 07:02:22;;;;;;;14.73;4.68;;;;;;;;;;5016336;28;20049;-65
2023/08/26 07:04:48;;;;;;;10.02;4.75;;;;;;;;;;5023049;28;20040;-65
2023/08/26 07:07:14;;;;;;;11.40;4.20;;;;;;;;;;5015682;28;20132;-65
2023/08/26 07:09:40;;;;;;;9.65;4.30;;;;;;;;;;5022725;28;20090;-65
2023/08/26 07:12:07;;;;;;;10.18;4.15;;;;;;;;;;5020163;28;20029;-65
2023/08/26 07:14:33;;;;;;;8.82;4.30;;;;;;;;;;5017884;28;21025;-65
2023/08/26 07:16:59;;;;;;;9.20;4.10;;;;;;;;;;5025545;28;20036;-64
2023/08/26 07:19:25;;;;;;;9.93;4.15;;;;;;;;;;5002995;28;20506;-65
2023/08/26 07:21:51;;;;;;;9.10;4.28;;;;;;;;;;5024412;28;20334;-64
2023/08/26 07:24:18;;;;;;;13.10;4.82;;;;;;;;;;5005182;28;20402;-64
2023/08/26 07:26:44;;;;;;;11.57;4.65;;;;;;;;;;5023459;28;20506;-64
2023/08/26 07:29:10;;;;;;;9.27;4.70;;;;;;;;;;5020396;28;20125;-65
2023/08/26 07:31:36;;;;;;;10.43;4.28;;;;;;;;;;5021305;28;20175;-65
2023/08/26 07:34:02;;;;;;;9.98;4.40;;;;;;;;;;5024094;28;20044;-64
2023/08/26 07:36:29;;;;;;;9.90;4.20;;;;;;;;;;5019785;28;20636;-65
2023/08/26 07:38:55;;;;;;;11.60;4.30;;;;;;;;;;5023955;28;20035;-65
2023/08/26 07:41:21;;;;;;;13.95;4.75;;;;;;;;;;5006545;28;20029;-65
2023/08/26 07:43:47;;;;;;;10.57;4.00;;;;;;;;;;5004172;28;20175;-64
2023/08/26 07:46:15;;;;;;;7.88;4.10;;;;;;;;;;5020185;28;20723;-65
2023/08/26 07:48:41;;;;;;;11.32;4.53;;;;;;;;;;5007233;28;20032;-64
2023/08/26 07:51:08;;;;;;;8.23;4.10;;;;;;;;;;4999521;28;20671;-64
2023/08/26 07:53:34;;;;;;;11.50;4.70;;;;;;;;;;5014878;28;20079;-64
2023/08/26 07:56:00;;;;;;;10.10;3.83;;;;;;;;;;5019240;28;20095;-65
2023/08/26 07:58:26;;;;;;;9.65;4.15;;;;;;;;;;5013811;28;20018;-65
2023/08/26 08:00:52;;;;;;;9.60;4.32;;;;;;;;;;5020161;28;20204;-65
2023/08/26 08:03:18;;;;;;;8.80;4.30;;;;;;;;;;5002194;28;20033;-65
2023/08/26 08:05:44;;;;;;;8.93;4.07;;;;;;;;;;5021405;28;20013;-65
2023/08/26 08:08:11;;;;;;;9.40;4.03;;;;;;;;;;5005000;28;20376;-65
2023/08/26 08:10:37;;;;;;;8.73;4.30;;;;;;;;;;5016509;28;20025;-65
2023/08/26 08:13:04;;;;;;;8.63;4.25;;;;;;;;;;5018344;28;20028;-65
2023/08/26 08:15:30;;;;;;;10.07;4.68;;;;;;;;;;4998369;28;20380;-65
2023/08/26 08:17:56;;;;;;;12.80;4.82;;;;;;;;;;5022379;28;20295;-65
2023/08/26 08:20:22;;;;;;;11.38;4.55;;;;;;;;;;5015688;28;20032;-65
2023/08/26 08:22:49;;;;;;;10.32;4.80;;;;;;;;;;5002523;28;20487;-64
2023/08/26 08:25:15;;;;;;;11.38;4.72;;;;;;;;;;5015354;28;20082;-65
2023/08/26 08:27:41;;;;;;;12.20;4.72;;;;;;;;;;5017910;28;20347;-65
2023/08/26 08:30:08;;;;;;;9.40;4.57;;;;;;;;;;5018409;28;20633;-65
2023/08/26 08:32:35;;;;;;;14.05;4.55;;;;;;;;;;5020422;28;20128;-65
2023/08/26 08:35:02;;;;;;;12.10;4.53;;;;;;;;;;5020095;28;20025;-65
2023/08/26 08:37:28;;;;;;;12.23;4.80;;;;;;;;;;4993465;28;20058;-65
2023/08/26 08:39:55;;;;;;;10.55;4.78;;;;;;;;;;4978106;28;20453;-64
2023/08/26 08:42:22;;;;;;;10.10;4.15;;;;;;;;;;4976727;28;20330;-65
2023/08/26 08:44:48;;;;;;;9.40;4.88;;;;;;;;;;4979972;28;20026;-64
2023/08/26 08:47:16;;;;;;;9.88;5.13;;;;;;;;;;4976007;28;20042;-66
2023/08/26 08:49:43;;;;;;;8.88;4.57;;;;;;;;;;4978718;28;20022;-65
2023/08/26 08:52:10;;;;;;;11.13;4.30;;;;;;;;;;4979139;28;20337;-65
2023/08/26 08:54:36;;;;;;;12.50;5.30;;;;;;;;;;4993162;28;20049;-65
2023/08/26 08:57:03;;;;;;;10.00;5.13;;;;;;;;;;4980728;28;20022;-65
2023/08/26 08:59:30;;;;;;;13.20;5.78;;;;;;;;;;4975244;28;20064;-65
2023/08/26 09:01:58;;;;;;;11.68;5.35;;;;;;;;;;4980213;28;20510;-66
2023/08/26 09:04:25;;;;;;;10.15;4.95;;;;;;;;;;4977039;28;20112;-65
2023/08/26 09:06:55;;;;;;;13.10;5.07;;;;;;;;;;4978104;28;20026;-65
2023/08/26 09:09:21;;;;;;;8.80;4.68;;;;;;;;;;4975686;28;20739;-65
2023/08/26 09:11:50;;;;;;;15.73;5.50;;;;;;;;;;4979099;28;20061;-64
2023/08/26 09:14:16;;;;;;;10.80;5.13;;;;;;;;;;4973250;28;20024;-65
2023/08/26 09:16:43;;;;;;;10.95;4.85;;;;;;;;;;4977805;28;20669;-64
2023/08/26 09:19:11;;;;;;;8.90;4.70;;;;;;;;;;4979849;28;20060;-64
2023/08/26 09:21:44;;;;;;;11.70;5.03;;;;;;;;;;4988795;28;20029;-67
2023/08/26 09:24:16;;;;;;;10.43;4.97;;;;;;;;;;4972470;28;20551;-65
2023/08/26 09:26:43;;;;;;;9.43;4.88;;;;;;;;;;4979005;28;20032;-65
2023/08/26 09:29:19;;;;;;;10.80;4.60;;;;;;;;;;4975690;28;20310;-65
2023/08/26 09:31:46;;;;;;;10.07;4.80;;;;;;;;;;4979645;28;20057;-65
2023/08/26 09:34:13;;;;;;;10.30;4.60;;;;;;;;;;4994906;28;20038;-65
2023/08/26 09:36:42;;;;;;;9.07;4.50;;;;;;;;;;4980751;28;20021;-65
2023/08/26 09:39:15;;;;;;;13.68;4.72;;;;;;;;;;5013976;28;20049;-65
2023/08/26 09:41:45;;;;;;;9.55;4.85;;;;;;;;;;5020865;28;20460;-65
2023/08/26 09:44:11;;;;;;;10.20;4.22;;;;;;;;;;5018238;28;20040;-66
2023/08/26 09:46:39;;;;;;;11.93;4.25;;;;;;;;;;5016935;28;20071;-65
2023/08/26 09:49:05;;;;;;;10.90;4.63;;;;;;;;;;5019052;28;20071;-64
2023/08/26 09:51:32;;;;;;;10.02;4.68;;;;;;;;;;4994961;28;20048;-67
2023/08/26 09:53:58;;;;;;;10.77;4.55;;;;;;;;;;5018440;28;20025;-65
2023/08/26 09:56:25;;;;;;;9.82;4.13;;;;;;;;;;5011570;28;20024;-65
2023/08/26 09:58:52;;;;;;;11.18;4.40;;;;;;;;;;5012639;28;20026;-67
2023/08/26 10:01:22;;;;;;;8.93;4.60;;;;;;;;;;4995715;28;20028;-66
2023/08/26 10:03:59;;;;;;;13.32;4.90;;;;;;;;;;4998912;28;20181;-66
2023/08/26 10:06:27;;;;;;;12.15;4.40;;;;;;;;;;5010579;28;20090;-68
2023/08/26 10:09:01;;;;;;;9.25;4.30;;;;;;;;;;5002835;28;20596;-66
2023/08/26 10:11:29;;;;;;;9.18;4.00;;;;;;;;;;5013459;28;20383;-65
2023/08/26 10:13:57;;;;;;;9.35;4.13;;;;;;;;;;5001803;28;20072;-65
2023/08/26 10:16:23;;;;;;;9.40;4.30;;;;;;;;;;5015095;28;20413;-66
2023/08/26 10:18:52;;;;;;;10.70;4.53;;;;;;;;;;5017230;28;20110;-66
2023/08/26 10:21:18;;;;;;;10.27;4.35;;;;;;;;;;5014788;28;20535;-66
2023/08/26 10:23:45;;;;;;;9.90;4.50;;;;;;;;;;5015885;28;20247;-65
2023/08/26 10:26:11;;;;;;;10.82;4.13;;;;;;;;;;5013677;28;20037;-65
2023/08/26 10:28:37;;;;;;;10.63;4.22;;;;;;;;;;5012138;28;20544;-65
2023/08/26 10:31:07;;;;;;;8.93;4.28;;;;;;;;;;5014364;28;20391;-66
2023/08/26 10:33:54;;;;;;;11.75;4.43;;;;;;;;;;4993811;28;20728;-66
2023/08/26 10:36:20;;;;;;;11.30;4.25;;;;;;;;;;5000712;28;20052;-65
2023/08/26 10:38:59;;;;;;;8.80;3.88;;;;;;;;;;4995426;28;20049;-66
2023/08/26 10:41:26;;;;;;;9.15;4.28;;;;;;;;;;5012948;28;20089;-66
2023/08/26 10:43:52;;;;;;;9.25;4.50;;;;;;;;;;5010867;28;20352;-65
2023/08/26 10:46:18;;;;;;;10.50;4.28;;;;;;;;;;5014270;28;20091;-65
2023/08/26 10:48:59;;;;;;;12.68;4.53;;;;;;;;;;5012564;28;20025;-65
2023/08/26 10:51:25;;;;;;;11.48;4.05;;;;;;;;;;5014560;28;20037;-66
2023/08/26 10:53:51;;;;;;;9.60;3.80;;;;;;;;;;4998543;28;20694;-66
2023/08/26 10:56:19;;;;;;;10.07;3.95;;;;;;;;;;4997078;28;20040;-66
2023/08/26 10:58:46;;;;;;;10.70;4.10;;;;;;;;;;5019995;28;20482;-66
2023/08/26 11:01:13;;;;;;;10.13;4.07;;;;;;;;;;5014322;28;20036;-66
2023/08/26 11:03:39;;;;;;;9.07;3.78;;;;;;;;;;5016487;28;20107;-66
2023/08/26 11:06:08;;;;;;;11.43;3.97;;;;;;;;;;5017807;28;20033;-66
2023/08/26 11:08:36;;;;;;;12.05;3.72;;;;;;;;;;5015491;28;20029;-66
2023/08/26 11:11:03;;;;;;;9.85;3.50;;;;;;;;;;5019642;28;20031;-66
2023/08/26 11:13:29;;;;;;;9.95;3.50;;;;;;;;;;5018004;28;20086;-68
2023/08/26 11:15:55;;;;;;;9.07;3.40;;;;;;;;;;5016789;28;20052;-66
2023/08/26 11:18:22;;;;;;;8.68;3.75;;;;;;;;;;5014859;28;20313;-68
2023/08/26 11:20:51;;;;;;;9.95;4.45;;;;;;;;;;5015888;28;20017;-65
2023/08/26 11:23:18;;;;;;;10.02;3.95;;;;;;;;;;4998990;28;20063;-66
2023/08/26 11:25:44;;;;;;;9.25;3.80;;;;;;;;;;5018859;28;20394;-66
2023/08/26 11:28:11;;;;;;;8.73;3.83;;;;;;;;;;5018845;28;20364;-67
2023/08/26 11:30:38;;;;;;;8.77;3.60;;;;;;;;;;5014281;28;20028;-66
2023/08/26 11:33:17;;;;;;;11.52;3.72;;;;;;;;;;5013027;28;20045;-67
2023/08/26 11:35:45;;;;;;;10.50;3.80;;;;;;;;;;5017203;28;20029;-66
2023/08/26 11:38:13;;;;;;;10.55;4.40;;;;;;;;;;5021587;28;20045;-67
2023/08/26 11:40:40;;;;;;;12.10;4.10;;;;;;;;;;5018088;28;20104;-66
2023/08/26 11:43:10;;;;;;;10.73;4.38;;;;;;;;;;5018560;28;20035;-66
2023/08/26 11:45:40;;;;;;;9.95;3.72;;;;;;;;;;5014774;28;20241;-67
2023/08/26 11:48:10;;;;;;;11.05;3.45;;;;;;;;;;5017324;28;20108;-67
2023/08/26 11:50:37;;;;;;;11.55;3.63;;;;;;;;;;5016283;28;20526;-66
2023/08/26 11:53:03;;;;;;;8.75;3.53;;;;;;;;;;5016218;28;20196;-66
2023/08/26 11:55:30;;;;;;;10.18;3.65;;;;;;;;;;5020234;28;20029;-66
2023/08/26 11:57:57;;;;;;;10.18;3.80;;;;;;;;;;5016033;28;20261;-66
2023/08/26 12:00:24;;;;;;;8.13;3.50;;;;;;;;;;5015186;28;20048;-66
2023/08/26 12:02:51;;;;;;;10.43;3.78;;;;;;;;;;5015532;28;20030;-69
2023/08/26 12:05:18;;;;;;;10.75;3.70;;;;;;;;;;5014142;28;20116;-66
2023/08/26 12:07:48;;;;;;;10.20;3.92;;;;;;;;;;5015973;28;20376;-66
2023/08/26 12:10:15;;;;;;;9.20;4.15;;;;;;;;;;5013615;28;20138;-66
2023/08/26 12:12:42;;;;;;;8.30;4.18;;;;;;;;;;5019071;28;20628;-67
2023/08/26 12:15:09;;;;;;;10.63;3.80;;;;;;;;;;5016892;28;20036;-67
2023/08/26 12:18:02;;;;;;;9.82;3.50;;;;;;;;;;5017794;28;20064;-68
2023/08/26 12:20:29;;;;;;;9.77;4.05;;;;;;;;;;5012428;28;20407;-67
2023/08/26 12:22:56;;;;;;;10.93;3.70;;;;;;;;;;5015132;28;20037;-67
2023/08/26 12:25:32;;;;;;;9.55;3.40;;;;;;;;;;5011841;28;20852;-67
2023/08/26 12:28:18;;;;;;;10.13;3.78;;;;;;;;;;5018299;28;20423;-67
2023/08/26 12:30:45;;;;;;;10.35;3.85;;;;;;;;;;5016910;28;20029;-66
2023/08/26 12:33:12;;;;;;;9.65;3.50;;;;;;;;;;4998344;28;20059;-66
2023/08/26 12:35:39;;;;;;;12.35;3.75;;;;;;;;;;5015178;28;20032;-65
2023/08/26 12:38:06;;;;;;;12.55;3.60;;;;;;;;;;4998375;28;20284;-66
2023/08/26 12:40:32;;;;;;;9.82;3.78;;;;;;;;;;5012502;28;20091;-66
2023/08/26 12:42:59;;;;;;;9.30;4.00;;;;;;;;;;4997994;28;20060;-65
2023/08/26 12:45:25;;;;;;;9.60;3.85;;;;;;;;;;5011360;28;20037;-65
2023/08/26 12:47:52;;;;;;;10.88;3.45;;;;;;;;;;5016902;28;20123;-65
2023/08/26 12:50:18;;;;;;;9.82;3.60;;;;;;;;;;5016529;28;20043;-65
2023/08/26 12:52:45;;;;;;;9.95;3.58;;;;;;;;;;5017474;28;20144;-66
2023/08/26 12:55:12;;;;;;;10.88;4.00;;;;;;;;;;5019427;28;20033;-66
2023/08/26 12:57:38;;;;;;;7.95;3.80;;;;;;;;;;5012227;28;20029;-66
2023/08/26 13:00:05;;;;;;;10.13;3.88;;;;;;;;;;5019918;28;20041;-67
2023/08/26 13:02:38;;;;;;;10.70;4.20;;;;;;;;;;5001217;28;20029;-66
2023/08/26 13:05:05;;;;;;;12.82;3.95;;;;;;;;;;5019526;28;20033;-66
2023/08/26 13:07:31;;;;;;;11.85;3.70;;;;;;;;;;5013137;28;20158;-66
2023/08/26 13:09:57;;;;;;;9.23;3.60;;;;;;;;;;5019839;28;20032;-67
2023/08/26 13:12:24;;;;;;;13.10;3.92;;;;;;;;;;5014725;28;20217;-67
2023/08/26 13:14:50;;;;;;;8.23;3.92;;;;;;;;;;5017253;28;20031;-66
2023/08/26 13:17:16;;;;;;;10.82;3.70;;;;;;;;;;5017737;28;20208;-66
2023/08/26 13:19:42;;;;;;;9.43;3.53;;;;;;;;;;4997196;28;20044;-66
2023/08/26 13:22:08;;;;;;;10.63;3.70;;;;;;;;;;5019406;28;20037;-66
2023/08/26 13:24:36;;;;;;;9.70;3.80;;;;;;;;;;4997335;28;20332;-66
2023/08/26 13:27:02;;;;;;;13.25;3.63;;;;;;;;;;5003439;28;20033;-66
2023/08/26 13:29:28;;;;;;;9.23;3.75;;;;;;;;;;5013773;28;20423;-65
2023/08/26 13:31:54;;;;;;;8.27;3.45;;;;;;;;;;5018848;28;20330;-65
2023/08/26 13:34:20;;;;;;;10.50;3.47;;;;;;;;;;5016149;28;20040;-66
2023/08/26 13:36:47;;;;;;;11.50;3.33;;;;;;;;;;4995768;28;20289;-66
2023/08/26 13:39:13;;;;;;;8.82;3.42;;;;;;;;;;5017222;28;20040;-67
2023/08/26 13:41:40;;;;;;;8.05;3.53;;;;;;;;;;5015877;28;20128;-66
2023/08/26 13:44:06;;;;;;;8.52;3.83;;;;;;;;;;5019471;28;20550;-66
2023/08/26 13:46:32;;;;;;;12.05;3.50;;;;;;;;;;5017852;28;20050;-66
2023/08/26 13:49:00;;;;;;;10.45;3.58;;;;;;;;;;5018938;28;20037;-66
2023/08/26 13:51:27;;;;;;;9.93;3.50;;;;;;;;;;5011835;28;20889;-68
2023/08/26 13:53:53;;;;;;;12.02;3.30;;;;;;;;;;5016962;28;20313;-66
2023/08/26 13:56:19;;;;;;;8.98;3.25;;;;;;;;;;4998019;28;20024;-66
2023/08/26 13:58:45;;;;;;;10.50;3.28;;;;;;;;;;5019025;28;20385;-66
2023/08/26 14:01:12;;;;;;;8.52;3.42;;;;;;;;;;5018271;28;20029;-66
2023/08/26 14:03:38;;;;;;;8.63;3.47;;;;;;;;;;5015475;28;20112;-66
2023/08/26 14:06:08;;;;;;;10.68;3.42;;;;;;;;;;5018440;28;20648;-66
2023/08/26 14:08:34;;;;;;;9.30;3.30;;;;;;;;;;5016657;28;20037;-66
2023/08/26 14:11:01;;;;;;;7.43;3.20;;;;;;;;;;5015503;28;20040;-66
2023/08/26 14:13:27;;;;;;;8.13;3.20;;;;;;;;;;5000344;28;20436;-67
2023/08/26 14:15:54;;;;;;;10.93;3.67;;;;;;;;;;5014963;28;20293;-65
2023/08/26 14:18:20;;;;;;;8.95;3.50;;;;;;;;;;5017405;28;20037;-66
2023/08/26 14:20:46;;;;;;;13.57;3.58;;;;;;;;;;5014733;28;20391;-65
2023/08/26 14:23:13;;;;;;;9.40;3.40;;;;;;;;;;5016309;28;20284;-65
2023/08/26 14:25:40;;;;;;;10.82;3.70;;;;;;;;;;5017563;28;20071;-66
2023/08/26 14:28:06;;;;;;;8.95;2.85;;;;;;;;;;5013191;28;20538;-66
2023/08/26 14:30:33;;;;;;;10.45;3.60;;;;;;;;;;5010376;28;20049;-66
2023/08/26 14:32:59;;;;;;;12.07;3.35;;;;;;;;;;5018724;28;20445;-65